createdAt,value
2018-09-21T00:01:50.427Z,19.70
2018-09-21T00:04:20.500Z,19.60
2018-09-21T00:06:50.367Z,19.60
2018-09-21T00:09:20.055Z,19.60
2018-09-21T00:11:49.814Z,19.50
2018-09-21T00:14:19.531Z,19.50
2018-09-21T00:16:49.219Z,19.50
2018-09-21T00:19:18.899Z,19.50
2018-09-21T00:21:48.791Z,19.50
2018-09-21T00:24:18.463Z,19.40
2018-09-21T00:26:48.175Z,19.40
2018-09-21T00:29:17.859Z,19.40
2018-09-21T00:31:47.838Z,19.30
2018-09-21T00:34:17.591Z,19.30
2018-09-21T00:36:47.307Z,19.30
2018-09-21T00:39:16.971Z,19.20
2018-09-21T00:41:46.644Z,19.20
2018-09-21T00:44:16.303Z,19.10
2018-09-21T00:46:46.347Z,19.10
2018-09-21T00:49:16.088Z,19.10
2018-09-21T00:51:45.846Z,19.10
2018-09-21T00:54:15.543Z,19.10
2018-09-21T00:56:45.219Z,19.10
2018-09-21T00:59:14.900Z,19.00
2018-09-21T01:01:44.589Z,19.00
2018-09-21T01:04:14.250Z,19.00
2018-09-21T01:06:43.947Z,18.90
2018-09-21T01:09:13.647Z,18.90
2018-09-21T01:11:43.346Z,18.80
2018-09-21T01:14:13.068Z,18.80
2018-09-21T01:16:42.818Z,18.70
2018-09-21T01:19:12.510Z,18.70
2018-09-21T01:21:42.184Z,18.80
2018-09-21T01:24:11.864Z,18.70
2018-09-21T01:26:41.531Z,18.70
2018-09-21T01:29:11.276Z,18.60
2018-09-21T01:31:41.308Z,18.60
2018-09-21T01:34:11.014Z,18.50
2018-09-21T01:36:40.679Z,18.50
2018-09-21T01:39:11.094Z,18.50
2018-09-21T01:41:40.770Z,18.40
2018-09-21T01:44:10.547Z,18.40
2018-09-21T01:46:40.211Z,18.40
2018-09-21T01:49:09.923Z,18.30
2018-09-21T01:51:39.698Z,18.30
2018-09-21T01:54:09.408Z,18.30
2018-09-21T01:56:39.115Z,18.30
2018-09-21T01:59:08.783Z,18.30
2018-09-21T02:01:38.436Z,18.30
2018-09-21T02:04:08.410Z,18.30
2018-09-21T02:06:38.098Z,18.20
2018-09-21T02:09:09.413Z,18.30
2018-09-21T02:11:40.221Z,18.20
2018-09-21T02:14:10.437Z,18.10
2018-09-21T02:16:40.147Z,18.10
2018-09-21T02:19:10.347Z,18.10
2018-09-21T02:21:40.083Z,18.10
2018-09-21T02:24:09.791Z,18.00
2018-09-21T02:26:39.455Z,18.00
2018-09-21T02:29:09.187Z,18.00
2018-09-21T02:31:38.872Z,18.00
2018-09-21T02:34:08.623Z,18.00
2018-09-21T02:36:38.340Z,18.00
2018-09-21T02:39:08.972Z,17.90
2018-09-21T02:41:38.668Z,17.90
2018-09-21T02:44:08.408Z,17.90
2018-09-21T02:46:38.124Z,17.90
2018-09-21T02:49:07.832Z,17.90
2018-09-21T02:51:37.511Z,17.90
2018-09-21T02:54:07.586Z,17.90
2018-09-21T02:56:37.971Z,17.90
2018-09-21T02:59:07.760Z,17.80
2018-09-21T03:01:37.459Z,17.80
2018-09-21T03:04:07.179Z,17.80
2018-09-21T03:06:36.872Z,17.70
2018-09-21T03:09:09.343Z,17.70
2018-09-21T03:11:39.044Z,17.70
2018-09-21T03:14:08.756Z,17.70
2018-09-21T03:16:38.441Z,17.70
2018-09-21T03:19:08.179Z,17.70
2018-09-21T03:21:37.847Z,17.70
2018-09-21T03:24:07.885Z,17.60
2018-09-21T03:26:37.579Z,17.60
2018-09-21T03:29:07.296Z,17.50
2018-09-21T03:31:36.971Z,17.50
2018-09-21T03:34:06.720Z,17.50
2018-09-21T03:36:36.410Z,17.40
2018-09-21T03:39:07.791Z,17.40
2018-09-21T03:41:37.805Z,17.40
2018-09-21T03:44:07.515Z,17.40
2018-09-21T03:46:37.505Z,17.40
2018-09-21T03:49:07.265Z,17.30
2018-09-21T03:51:36.967Z,17.30
2018-09-21T03:54:07.031Z,17.30
2018-09-21T03:56:37.300Z,17.20
2018-09-21T03:59:07.307Z,17.10
2018-09-21T04:01:37.067Z,17.10
2018-09-21T04:04:07.223Z,17.10
2018-09-21T04:06:37.088Z,17.10
2018-09-21T04:09:08.804Z,17.10
2018-09-21T04:11:38.633Z,17.00
2018-09-21T04:14:08.322Z,17.00
2018-09-21T04:16:38.031Z,17.00
2018-09-21T04:19:07.720Z,17.00
2018-09-21T04:21:37.439Z,17.00
2018-09-21T04:24:07.703Z,17.00
2018-09-21T04:26:37.416Z,16.90
2018-09-21T04:29:07.123Z,16.90
2018-09-21T04:31:36.815Z,16.90
2018-09-21T04:34:06.525Z,16.80
2018-09-21T04:36:36.215Z,16.80
2018-09-21T04:39:09.924Z,16.80
2018-09-21T04:41:40.170Z,16.80
2018-09-21T04:44:10.979Z,16.80
2018-09-21T04:46:40.704Z,16.80
2018-09-21T04:49:10.367Z,16.80
2018-09-21T04:51:40.095Z,16.70
2018-09-21T04:54:09.815Z,16.80
2018-09-21T04:56:39.511Z,16.80
2018-09-21T04:59:09.171Z,16.80
2018-09-21T05:01:38.855Z,16.70
2018-09-21T05:04:08.531Z,16.70
2018-09-21T05:06:38.276Z,16.70
2018-09-21T05:09:10.697Z,16.60
2018-09-21T05:11:41.211Z,16.60
2018-09-21T05:14:10.915Z,16.60
2018-09-21T05:16:40.590Z,16.60
2018-09-21T05:19:10.320Z,16.60
2018-09-21T05:21:40.004Z,16.60
2018-09-21T05:24:10.430Z,16.60
2018-09-21T05:26:40.136Z,16.60
2018-09-21T05:29:09.791Z,16.70
2018-09-21T05:31:39.511Z,16.70
2018-09-21T05:34:09.210Z,16.70
2018-09-21T05:36:39.513Z,16.70
2018-09-21T05:39:12.503Z,16.70
2018-09-21T05:41:42.334Z,16.70
2018-09-21T05:44:12.299Z,16.70
2018-09-21T05:46:42.446Z,16.70
2018-09-21T05:49:12.110Z,16.80
2018-09-21T05:51:41.950Z,16.80
2018-09-21T05:54:11.623Z,16.80
2018-09-21T05:56:42.055Z,16.90
2018-09-21T05:59:11.720Z,16.90
2018-09-21T06:01:41.426Z,16.90
2018-09-21T06:04:11.096Z,17.00
2018-09-21T06:06:40.862Z,17.20
2018-09-21T06:09:12.375Z,17.30
2018-09-21T06:11:42.723Z,17.50
2018-09-21T06:14:12.815Z,17.70
2018-09-21T06:16:42.530Z,17.80
2018-09-21T06:19:12.207Z,18.00
2018-09-21T06:21:41.894Z,18.20
2018-09-21T06:24:11.567Z,18.30
2018-09-21T06:26:41.272Z,18.40
2018-09-21T06:29:10.933Z,18.50
2018-09-21T06:31:40.623Z,18.60
2018-09-21T06:34:10.274Z,18.80
2018-09-21T06:36:39.979Z,18.80
2018-09-21T06:39:10.922Z,18.80
2018-09-21T06:41:40.591Z,18.80
2018-09-21T06:44:10.355Z,19.00
2018-09-21T06:46:40.030Z,19.20
2018-09-21T06:49:09.698Z,19.40
2018-09-21T06:51:39.379Z,19.50
2018-09-21T06:54:09.052Z,19.60
2018-09-21T06:56:38.734Z,19.70
2018-09-21T06:59:08.506Z,19.80
2018-09-21T07:01:38.272Z,19.90
2018-09-21T07:04:08.103Z,19.90
2018-09-21T07:06:37.811Z,19.90
2018-09-21T07:09:11.876Z,20.00
2018-09-21T07:11:41.943Z,20.10
2018-09-21T07:14:12.325Z,20.10
2018-09-21T07:16:42.699Z,20.20
2018-09-21T07:19:12.790Z,20.20
2018-09-21T07:21:42.611Z,20.30
2018-09-21T07:24:12.342Z,20.30
2018-09-21T07:26:42.006Z,20.40
2018-09-21T07:29:11.707Z,20.50
2018-09-21T07:31:41.767Z,20.50
2018-09-21T07:34:11.487Z,20.60
2018-09-21T07:36:41.197Z,20.70
2018-09-21T07:39:10.886Z,20.80
2018-09-21T07:41:40.531Z,20.90
2018-09-21T07:44:10.226Z,21.00
2018-09-21T07:46:39.895Z,21.10
2018-09-21T07:49:09.583Z,21.10
2018-09-21T07:51:39.300Z,21.20
2018-09-21T07:54:08.975Z,21.30
2018-09-21T07:56:38.934Z,21.40
2018-09-21T07:59:08.632Z,21.50
2018-09-21T08:01:38.322Z,21.60
2018-09-21T08:04:08.221Z,21.80
2018-09-21T08:06:38.099Z,21.80
2018-09-21T08:09:09.209Z,21.90
2018-09-21T08:11:38.963Z,22.10
2018-09-21T08:14:08.921Z,22.20
2018-09-21T08:16:39.024Z,22.30
2018-09-21T08:19:09.091Z,22.40
2018-09-21T08:21:38.814Z,22.60
2018-09-21T08:24:08.495Z,22.80
2018-09-21T08:26:38.219Z,23.00
2018-09-21T08:29:08.104Z,23.20
2018-09-21T08:31:37.772Z,23.40
2018-09-21T08:34:07.506Z,23.40
2018-09-21T08:36:37.203Z,23.40
2018-09-21T08:39:09.290Z,23.40
2018-09-21T08:41:39.542Z,23.40
2018-09-21T08:44:09.612Z,23.50
2018-09-21T08:46:39.655Z,23.60
2018-09-21T08:49:09.362Z,23.60
2018-09-21T08:51:39.076Z,23.70
2018-09-21T08:54:08.755Z,23.60
2018-09-21T08:56:38.407Z,23.60
2018-09-21T08:59:08.115Z,23.60
2018-09-21T09:01:37.786Z,23.60
2018-09-21T09:04:07.659Z,23.60
2018-09-21T09:06:37.323Z,23.60
2018-09-21T09:09:09.418Z,23.60
2018-09-21T09:11:39.857Z,23.70
2018-09-21T09:14:09.538Z,23.70
2018-09-21T09:16:38.924Z,23.80
2018-09-21T09:19:08.618Z,23.90
2018-09-21T09:21:38.315Z,23.90
2018-09-21T09:24:08.051Z,24.00
2018-09-21T09:26:37.726Z,24.00
2018-09-21T09:29:07.435Z,24.00
2018-09-21T09:31:37.195Z,24.00
2018-09-21T09:34:06.622Z,24.00
2018-09-21T09:36:36.000Z,24.00
2018-09-21T09:39:09.143Z,24.10
2018-09-21T09:41:38.547Z,24.20
2018-09-21T09:44:08.006Z,24.20
2018-09-21T09:46:37.683Z,24.30
2018-09-21T09:49:07.514Z,24.50
2018-09-21T09:51:37.643Z,24.60
2018-09-21T09:54:07.333Z,24.70
2018-09-21T09:56:37.011Z,24.90
2018-09-21T09:59:06.565Z,25.00
2018-09-21T10:01:36.235Z,25.00
2018-09-21T10:04:05.900Z,25.10
2018-09-21T10:06:35.600Z,25.10
2018-09-21T10:09:08.902Z,25.00
2018-09-21T10:11:39.111Z,24.90
2018-09-21T10:14:09.087Z,24.90
2018-09-21T10:16:38.772Z,25.00
2018-09-21T10:19:08.439Z,25.00
2018-09-21T10:21:38.147Z,25.00
2018-09-21T10:24:07.555Z,25.10
2018-09-21T10:26:37.515Z,25.20
2018-09-21T10:29:09.124Z,25.10
2018-09-21T10:31:39.394Z,25.10
2018-09-21T10:34:08.766Z,25.10
2018-09-21T10:36:38.151Z,25.10
2018-09-21T10:39:08.128Z,25.20
2018-09-21T10:41:37.815Z,25.20
2018-09-21T10:44:07.513Z,25.20
2018-09-21T10:46:37.208Z,25.40
2018-09-21T10:49:06.975Z,25.40
2018-09-21T10:51:36.656Z,25.50
2018-09-21T10:54:06.355Z,25.60
2018-09-21T10:56:35.745Z,25.70
2018-09-21T10:59:05.783Z,25.70
2018-09-21T11:01:35.328Z,25.70
2018-09-21T11:04:05.580Z,25.70
2018-09-21T11:06:35.003Z,25.70
2018-09-21T11:09:07.686Z,25.70
2018-09-21T11:11:37.408Z,25.80
2018-09-21T11:14:06.800Z,25.80
2018-09-21T11:16:36.543Z,25.80
2018-09-21T11:19:05.915Z,25.80
2018-09-21T11:21:35.635Z,25.90
2018-09-21T11:24:05.319Z,25.90
2018-09-21T11:26:34.716Z,25.90
2018-09-21T11:29:04.489Z,26.00
2018-09-21T11:31:33.919Z,26.00
2018-09-21T11:34:03.375Z,26.10
2018-09-21T11:36:32.779Z,26.10
2018-09-21T11:39:02.192Z,26.10
2018-09-21T11:41:31.627Z,26.00
2018-09-21T11:44:01.004Z,25.90
2018-09-21T11:46:30.448Z,26.00
2018-09-21T11:48:59.835Z,26.20
2018-09-21T11:51:29.227Z,26.20
2018-09-21T11:53:58.985Z,26.20
2018-09-21T11:56:28.403Z,26.10
2018-09-21T11:58:57.835Z,26.10
2018-09-21T12:01:27.234Z,26.00
2018-09-21T12:03:56.611Z,26.00
2018-09-21T12:06:26.049Z,26.00
2018-09-21T12:08:56.679Z,26.00
2018-09-21T12:11:26.079Z,26.00
2018-09-21T12:13:55.516Z,26.10
2018-09-21T12:16:24.932Z,26.10
2018-09-21T12:18:54.313Z,26.00
2018-09-21T12:21:23.707Z,26.00
2018-09-21T12:23:53.095Z,25.90
2018-09-21T12:26:22.878Z,25.80
2018-09-21T12:28:52.251Z,25.80
2018-09-21T12:31:21.704Z,25.70
2018-09-21T12:33:51.535Z,25.80
2018-09-21T12:36:20.961Z,25.80
2018-09-21T12:38:50.564Z,25.70
2018-09-21T12:41:19.955Z,25.70
2018-09-21T12:43:49.347Z,25.80
2018-09-21T12:46:27.335Z,25.80
2018-09-21T12:49:00.560Z,25.90
2018-09-21T12:51:30.001Z,25.90
2018-09-21T12:53:59.379Z,25.80
2018-09-21T12:56:29.147Z,25.80
2018-09-21T12:58:58.728Z,25.70
2018-09-21T13:01:28.095Z,25.80
2018-09-21T13:03:57.523Z,25.80
2018-09-21T13:06:27.145Z,25.80
2018-09-21T13:08:56.704Z,25.70
2018-09-21T13:11:26.053Z,25.50
2018-09-21T13:13:55.686Z,25.50
2018-09-21T13:16:26.069Z,25.50
2018-09-21T13:18:55.791Z,25.60
2018-09-21T13:21:25.182Z,25.50
2018-09-21T13:23:55.748Z,25.60
2018-09-21T13:26:26.027Z,25.60
2018-09-21T13:28:55.459Z,25.70
2018-09-21T13:31:24.867Z,25.60
2018-09-21T13:33:54.259Z,25.50
2018-09-21T13:36:23.984Z,25.40
2018-09-21T13:38:53.355Z,25.30
2018-09-21T13:41:23.399Z,25.30
2018-09-21T13:43:52.832Z,25.30
2018-09-21T13:46:22.311Z,25.30
2018-09-21T13:48:51.709Z,25.40
2018-09-21T13:51:21.139Z,25.40
2018-09-21T13:53:50.820Z,25.40
2018-09-21T13:56:20.480Z,25.40
2018-09-21T13:58:50.131Z,25.40
2018-09-21T14:01:19.790Z,25.30
2018-09-21T14:03:49.160Z,25.30
2018-09-21T14:06:18.871Z,25.30
2018-09-21T14:08:48.245Z,25.20
2018-09-21T14:11:18.023Z,25.20
2018-09-21T14:13:47.462Z,25.20
2018-09-21T14:16:17.127Z,25.10
2018-09-21T14:18:46.715Z,25.00
2018-09-21T14:21:16.460Z,24.90
2018-09-21T14:23:46.102Z,24.90
2018-09-21T14:26:15.876Z,24.90
2018-09-21T14:28:45.591Z,24.80
2018-09-21T14:31:15.255Z,24.70
2018-09-21T14:33:44.934Z,24.70
2018-09-21T14:36:14.592Z,24.70
2018-09-21T14:38:44.365Z,24.70
2018-09-21T14:41:14.055Z,24.70
2018-09-21T14:43:43.442Z,24.60
2018-09-21T14:46:12.795Z,24.60
2018-09-21T14:48:42.503Z,24.60
2018-09-21T14:51:12.287Z,24.60
2018-09-21T14:53:41.984Z,24.60
2018-09-21T14:56:11.680Z,24.50
2018-09-21T14:58:41.378Z,24.50
2018-09-21T15:01:11.078Z,24.40
2018-09-21T15:03:40.852Z,24.50
2018-09-21T15:06:10.907Z,24.40
2018-09-21T15:08:40.664Z,24.40
2018-09-21T15:11:10.424Z,24.30
2018-09-21T15:13:40.391Z,24.30
2018-09-21T15:16:10.378Z,24.20
2018-09-21T15:18:40.051Z,24.20
2018-09-21T15:21:09.536Z,24.20
2018-09-21T15:23:39.243Z,24.30
2018-09-21T15:26:09.212Z,24.40
2018-09-21T15:28:39.238Z,24.30
2018-09-21T15:31:09.746Z,24.30
2018-09-21T15:33:39.761Z,24.30
2018-09-21T15:36:09.487Z,24.20
2018-09-21T15:38:39.183Z,24.20
2018-09-21T15:41:09.178Z,24.10
2018-09-21T15:43:39.247Z,24.00
2018-09-21T15:46:09.067Z,24.00
2018-09-21T15:48:38.752Z,23.90
2018-09-21T15:51:08.806Z,23.90
2018-09-21T15:53:38.475Z,23.80
2018-09-21T15:56:08.291Z,23.80
2018-09-21T15:58:38.160Z,23.80
2018-09-21T16:01:08.137Z,23.80
2018-09-21T16:03:37.550Z,23.70
2018-09-21T16:06:07.615Z,23.70
2018-09-21T16:08:37.563Z,23.70
2018-09-21T16:11:07.624Z,23.70
2018-09-21T16:13:37.562Z,23.70
2018-09-21T16:16:07.275Z,23.70
2018-09-21T16:18:37.051Z,23.60
2018-09-21T16:21:06.877Z,23.50
2018-09-21T16:23:36.977Z,23.10
2018-09-21T16:26:06.839Z,22.70
2018-09-21T16:28:36.833Z,22.20
2018-09-21T16:31:07.612Z,21.80
2018-09-21T16:33:38.623Z,21.20
2018-09-21T16:36:08.941Z,20.80
2018-09-21T16:38:38.611Z,20.40
2018-09-21T16:41:08.467Z,20.20
2018-09-21T16:43:38.180Z,19.80
2018-09-21T16:46:08.771Z,19.60
2018-09-21T16:48:38.509Z,19.50
2018-09-21T16:51:08.440Z,19.50
2018-09-21T16:53:40.008Z,19.50
2018-09-21T16:56:10.914Z,19.30
2018-09-21T16:58:41.314Z,19.10
2018-09-21T17:01:11.512Z,19.00
2018-09-21T17:03:41.714Z,19.00
2018-09-21T17:06:12.805Z,19.00
2018-09-21T17:08:42.919Z,19.10
2018-09-21T17:11:13.026Z,19.00
2018-09-21T17:13:42.828Z,18.90
2018-09-21T17:16:13.223Z,18.90
2018-09-21T17:18:44.090Z,18.70
2018-09-21T17:21:13.892Z,18.70
2018-09-21T17:23:43.715Z,18.50
2018-09-21T17:26:13.426Z,18.40
2018-09-21T17:28:43.294Z,18.40
2018-09-21T17:31:12.998Z,18.30
2018-09-21T17:33:42.655Z,18.30
2018-09-21T17:36:12.339Z,18.20
2018-09-21T17:38:42.026Z,18.10
2018-09-21T17:41:12.054Z,18.10
2018-09-21T17:43:41.790Z,18.00
2018-09-21T17:46:11.455Z,17.90
2018-09-21T17:48:41.146Z,17.70
2018-09-21T17:51:11.035Z,17.70
2018-09-21T17:53:40.738Z,17.60
2018-09-21T17:56:10.458Z,17.60
2018-09-21T17:58:40.131Z,17.60
2018-09-21T18:01:09.811Z,17.50
2018-09-21T18:03:40.080Z,17.40
2018-09-21T18:06:10.667Z,17.40
2018-09-21T18:08:40.353Z,17.40
2018-09-21T18:11:10.035Z,17.30
2018-09-21T18:13:39.747Z,17.20
2018-09-21T18:16:09.611Z,17.20
2018-09-21T18:18:39.463Z,17.10
2018-09-21T18:21:09.197Z,17.10
2018-09-21T18:23:38.889Z,17.10
2018-09-21T18:26:09.047Z,17.00
2018-09-21T18:28:38.970Z,17.00
2018-09-21T18:31:09.046Z,17.00
2018-09-21T18:33:38.779Z,17.00
2018-09-21T18:36:08.784Z,17.00
2018-09-21T18:38:38.518Z,17.00
2018-09-21T18:41:08.244Z,17.00
2018-09-21T18:43:38.974Z,17.00
2018-09-21T18:46:09.063Z,17.00
2018-09-21T18:48:38.771Z,16.90
2018-09-21T18:51:08.482Z,16.80
2018-09-21T18:53:38.182Z,16.70
2018-09-21T18:56:08.004Z,16.70
2018-09-21T18:58:38.133Z,16.70
2018-09-21T19:01:08.020Z,16.70
2018-09-21T19:03:37.728Z,16.60
2018-09-21T19:06:07.662Z,16.50
2018-09-21T19:08:37.439Z,16.60
2018-09-21T19:11:07.210Z,16.60
2018-09-21T19:13:37.390Z,16.50
2018-09-21T19:16:07.175Z,16.50
2018-09-21T19:18:36.868Z,16.40
2018-09-21T19:21:06.566Z,16.40
2018-09-21T19:23:36.295Z,16.30
2018-09-21T19:26:05.959Z,16.20
2018-09-21T19:28:35.689Z,16.20
2018-09-21T19:31:05.366Z,16.20
2018-09-21T19:33:35.116Z,16.10
2018-09-21T19:36:04.918Z,15.90
2018-09-21T19:38:34.661Z,15.90
2018-09-21T19:41:04.574Z,15.80
2018-09-21T19:43:34.278Z,15.80
2018-09-21T19:46:03.972Z,15.80
2018-09-21T19:48:33.785Z,15.80
2018-09-21T19:51:05.416Z,15.80
2018-09-21T19:53:35.108Z,15.70
2018-09-21T19:56:04.807Z,15.70
2018-09-21T19:58:34.475Z,15.70
2018-09-21T20:01:04.194Z,15.70
2018-09-21T20:03:33.839Z,15.70
2018-09-21T20:06:03.538Z,15.60
2018-09-21T20:08:33.287Z,15.60
2018-09-21T20:11:03.007Z,15.60
2018-09-21T20:13:32.875Z,15.60
2018-09-21T20:16:02.594Z,15.50
2018-09-21T20:18:32.325Z,15.50
2018-09-21T20:21:02.036Z,15.50
2018-09-21T20:23:31.702Z,15.50
2018-09-21T20:26:01.388Z,15.50
2018-09-21T20:28:31.070Z,15.50
2018-09-21T20:31:06.550Z,15.50
2018-09-21T20:33:37.038Z,15.50
2018-09-21T20:36:06.707Z,15.50
2018-09-21T20:38:36.379Z,15.50
2018-09-21T20:41:06.100Z,15.50
2018-09-21T20:43:35.775Z,15.50
2018-09-21T20:46:05.480Z,15.50
2018-09-21T20:48:35.135Z,15.40
2018-09-21T20:51:04.828Z,15.40
2018-09-21T20:53:34.495Z,15.40
2018-09-21T20:56:04.551Z,15.40
2018-09-21T20:58:34.218Z,15.40
2018-09-21T21:01:03.966Z,15.40
2018-09-21T21:03:33.639Z,15.40
2018-09-21T21:06:03.424Z,15.40
2018-09-21T21:08:33.153Z,15.40
2018-09-21T21:11:02.898Z,15.40
2018-09-21T21:13:32.564Z,15.30
2018-09-21T21:16:02.257Z,15.30
2018-09-21T21:18:31.927Z,15.30
2018-09-21T21:21:01.616Z,15.30
2018-09-21T21:23:31.291Z,15.30
2018-09-21T21:26:01.015Z,15.20
2018-09-21T21:28:30.730Z,15.20
2018-09-21T21:31:00.459Z,15.20
2018-09-21T21:33:30.207Z,15.20
2018-09-21T21:35:59.911Z,15.20
2018-09-21T21:38:29.615Z,15.20
2018-09-21T21:40:59.304Z,15.30
2018-09-21T21:43:28.985Z,15.20
2018-09-21T21:45:58.685Z,15.20
2018-09-21T21:48:28.392Z,15.20
2018-09-21T21:50:58.150Z,15.20
2018-09-21T21:53:27.810Z,15.10
2018-09-21T21:55:57.527Z,15.20
2018-09-21T21:58:27.207Z,15.20
2018-09-21T22:01:02.514Z,15.10
2018-09-21T22:03:32.210Z,15.10
2018-09-21T22:06:01.922Z,15.10
2018-09-21T22:08:31.606Z,15.00
2018-09-21T22:11:05.623Z,15.00
2018-09-21T22:13:41.006Z,15.00
2018-09-21T22:16:10.734Z,15.00
2018-09-21T22:18:40.418Z,15.00
2018-09-21T22:21:10.125Z,14.90
2018-09-21T22:23:39.847Z,14.90
2018-09-21T22:26:09.503Z,14.90
2018-09-21T22:28:39.171Z,14.90
2018-09-21T22:31:09.146Z,15.00
2018-09-21T22:33:38.840Z,15.00
2018-09-21T22:36:08.715Z,15.00
2018-09-21T22:38:38.440Z,15.00
2018-09-21T22:41:08.108Z,15.00
2018-09-21T22:43:37.790Z,15.00
2018-09-21T22:46:07.555Z,15.00
2018-09-21T22:48:37.336Z,15.00
2018-09-21T22:51:07.010Z,15.00
2018-09-21T22:53:36.776Z,15.00
2018-09-21T22:56:06.642Z,15.00
2018-09-21T22:58:36.555Z,15.00
2018-09-21T23:01:06.709Z,15.00
2018-09-21T23:03:36.435Z,15.00
2018-09-21T23:06:06.522Z,15.00
2018-09-21T23:08:36.204Z,15.00
2018-09-21T23:11:05.886Z,15.10
2018-09-21T23:13:35.559Z,15.10
2018-09-21T23:16:05.255Z,15.10
2018-09-21T23:18:34.954Z,15.00
2018-09-21T23:21:04.676Z,15.00
2018-09-21T23:23:34.378Z,15.10
2018-09-21T23:26:04.090Z,15.10
2018-09-21T23:28:33.791Z,15.10
2018-09-21T23:31:03.478Z,15.10
2018-09-21T23:33:33.224Z,15.10
2018-09-21T23:36:02.886Z,15.10
2018-09-21T23:38:32.602Z,15.00
2018-09-21T23:41:02.277Z,15.00
2018-09-21T23:43:31.973Z,15.00
2018-09-21T23:46:01.639Z,14.90
2018-09-21T23:48:31.337Z,14.90
2018-09-21T23:51:01.038Z,14.90
2018-09-21T23:53:30.772Z,14.90
2018-09-21T23:56:00.473Z,14.90
2018-09-21T23:58:30.184Z,14.90
